sensor_id;sensor_type;location;lat;lon;timestamp;pressure;altitude;pressure_sealevel;temperature;humidity
23253;BME280;11795;47.054;15.408;2023-12-28T00:01:59;97890;;;2.6;96.5
23253;BME280;11795;47.054;15.408;2023-12-28T00:03:59;97890;;;2.5;96.5
23253;BME280;11795;47.054;15.408;2023-12-28T00:05:59;97890;;;2.4;97.3
23253;BME280;11795;47.054;15.408;2023-12-28T00:07:59;97880;;;2.4;97.1
23253;BME280;11795;47.054;15.408;2023-12-28T00:09:59;97870;;;2.3;97.9
23253;BME280;11795;47.054;15.408;2023-12-28T00:11:59;97880;;;2.5;97.7
23253;BME280;11795;47.054;15.408;2023-12-28T00:13:59;97880;;;2.4;97.8
23253;BME280;11795;47.054;15.408;2023-12-28T00:15:59;97880;;;2.3;98.5
23253;BME280;11795;47.054;15.408;2023-12-28T00:17:59;97880;;;2.5;97.4
23253;BME280;11795;47.054;15.408;2023-12-28T00:19:59;97880;;;2.4;97.7
23253;BME280;11795;47.054;15.408;2023-12-28T00:21:59;97870;;;2.5;98.1
23253;BME280;11795;47.054;15.408;2023-12-28T00:23:59;97870;;;2.3;98.9
23253;BME280;11795;47.054;15.408;2023-12-28T00:25:59;97860;;;2.3;99.7
23253;BME280;11795;47.054;15.408;2023-12-28T00:27:59;97860;;;2.4;99.1
23253;BME280;11795;47.054;15.408;2023-12-28T00:29:59;97870;;;2.3;99.6
23253;BME280;11795;47.054;15.408;2023-12-28T00:32:00;97870;;;2.4;100.0
23253;BME280;11795;47.054;15.408;2023-12-28T00:33:59;97880;;;2.2;100.0
23253;BME280;11795;47.054;15.408;2023-12-28T00:35:59;97870;;;2.2;100.0
23253;BME280;11795;47.054;15.408;2023-12-28T00:37:59;97870;;;2.3;100.0
23253;BME280;11795;47.054;15.408;2023-12-28T00:39:59;97880;;;2.3;100.0
23253;BME280;11795;47.054;15.408;2023-12-28T00:41:59;97880;;;2.5;99.5
23253;BME280;11795;47.054;15.408;2023-12-28T00:43:59;97880;;;2.2;99.9
23253;BME280;11795;47.054;15.408;2023-12-28T00:45:59;97880;;;2.2;100.0
23253;BME280;11795;47.054;15.408;2023-12-28T00:47:59;97880;;;2.3;100.0
23253;BME280;11795;47.054;15.408;2023-12-28T00:49:59;97880;;;2.3;100.0
23253;BME280;11795;47.054;15.408;2023-12-28T00:51:59;97870;;;2.4;99.9
23253;BME280;11795;47.054;15.408;2023-12-28T00:53:59;97880;;;2.3;100.0
23253;BME280;11795;47.054;15.408;2023-12-28T00:55:59;97870;;;2.1;100.0
23253;BME280;11795;47.054;15.408;2023-12-28T00:57:59;97880;;;2.2;100.0
23253;BME280;11795;47.054;15.408;2023-12-28T00:59:59;97880;;;2.1;100.0
23253;BME280;11795;47.054;15.408;2023-12-28T01:01:59;97880;;;2.3;100.0
23253;BME280;11795;47.054;15.408;2023-12-28T01:03:59;97880;;;2.2;100.0
23253;BME280;11795;47.054;15.408;2023-12-28T01:05:59;97880;;;2.1;100.0
23253;BME280;11795;47.054;15.408;2023-12-28T01:07:59;97880;;;2.2;100.0
23253;BME280;11795;47.054;15.408;2023-12-28T01:09:59;97880;;;2.1;100.0
23253;BME280;11795;47.054;15.408;2023-12-28T01:11:59;97880;;;2.3;100.0
23253;BME280;11795;47.054;15.408;2023-12-28T01:13:59;97870;;;2.1;100.0
23253;BME280;11795;47.054;15.408;2023-12-28T01:15:59;97870;;;2.1;100.0
23253;BME280;11795;47.054;15.408;2023-12-28T01:17:59;97870;;;2.1;100.0
23253;BME280;11795;47.054;15.408;2023-12-28T01:19:59;97880;;;2.0;100.0
23253;BME280;11795;47.054;15.408;2023-12-28T01:21:59;97880;;;2.1;100.0
23253;BME280;11795;47.054;15.408;2023-12-28T01:23:59;97880;;;2.0;100.0
23253;BME280;11795;47.054;15.408;2023-12-28T01:25:59;97870;;;1.9;100.0
23253;BME280;11795;47.054;15.408;2023-12-28T01:27:59;97870;;;2.0;100.0
23253;BME280;11795;47.054;15.408;2023-12-28T01:29:59;97870;;;1.9;100.0
23253;BME280;11795;47.054;15.408;2023-12-28T01:31:59;97870;;;2.1;100.0
23253;BME280;11795;47.054;15.408;2023-12-28T01:33:59;97880;;;2.0;100.0
23253;BME280;11795;47.054;15.408;2023-12-28T01:35:59;97880;;;2.0;100.0
23253;BME280;11795;47.054;15.408;2023-12-28T01:38:01;97880;;;2.0;100.0
23253;BME280;11795;47.054;15.408;2023-12-28T01:39:59;97870;;;1.8;100.0
23253;BME280;11795;47.054;15.408;2023-12-28T01:41:59;97880;;;2.0;100.0
23253;BME280;11795;47.054;15.408;2023-12-28T01:43:59;97870;;;1.8;100.0
23253;BME280;11795;47.054;15.408;2023-12-28T01:45:59;97870;;;1.8;100.0
23253;BME280;11795;47.054;15.408;2023-12-28T01:47:59;97870;;;1.8;100.0
23253;BME280;11795;47.054;15.408;2023-12-28T01:49:59;97870;;;1.7;100.0
23253;BME280;11795;47.054;15.408;2023-12-28T01:52:00;97870;;;1.8;100.0
23253;BME280;11795;47.054;15.408;2023-12-28T01:53:59;97870;;;1.6;100.0
23253;BME280;11795;47.054;15.408;2023-12-28T01:55:59;97860;;;1.6;100.0
23253;BME280;11795;47.054;15.408;2023-12-28T01:57:59;97870;;;1.7;100.0
23253;BME280;11795;47.054;15.408;2023-12-28T02:00:01;97870;;;1.6;100.0
23253;BME280;11795;47.054;15.408;2023-12-28T02:01:59;97870;;;1.8;100.0
23253;BME280;11795;47.054;15.408;2023-12-28T02:03:59;97860;;;1.6;100.0
23253;BME280;11795;47.054;15.408;2023-12-28T02:06:00;97870;;;1.5;100.0
23253;BME280;11795;47.054;15.408;2023-12-28T02:07:59;97870;;;1.6;100.0
23253;BME280;11795;47.054;15.408;2023-12-28T02:09:59;97850;;;1.5;100.0
23253;BME280;11795;47.054;15.408;2023-12-28T02:11:59;97850;;;1.7;100.0
23253;BME280;11795;47.054;15.408;2023-12-28T02:13:59;97850;;;1.5;100.0
23253;BME280;11795;47.054;15.408;2023-12-28T02:16:03;97830;;;1.4;100.0
23253;BME280;11795;47.054;15.408;2023-12-28T02:18:05;97840;;;1.5;100.0
23253;BME280;11795;47.054;15.408;2023-12-28T02:20:00;97830;;;1.4;100.0
23253;BME280;11795;47.054;15.408;2023-12-28T02:21:59;97830;;;1.6;100.0
23253;BME280;11795;47.054;15.408;2023-12-28T02:23:59;97830;;;1.4;100.0
23253;BME280;11795;47.054;15.408;2023-12-28T02:25:59;97830;;;1.5;100.0
23253;BME280;11795;47.054;15.408;2023-12-28T02:27:59;97830;;;1.4;100.0
23253;BME280;11795;47.054;15.408;2023-12-28T02:29:59;97820;;;1.3;100.0
23253;BME280;11795;47.054;15.408;2023-12-28T02:32:06;97820;;;1.5;100.0
23253;BME280;11795;47.054;15.408;2023-12-28T02:34:06;97810;;;1.3;100.0
23253;BME280;11795;47.054;15.408;2023-12-28T02:36:02;97810;;;1.2;100.0
23253;BME280;11795;47.054;15.408;2023-12-28T02:38:02;97810;;;1.4;100.0
23253;BME280;11795;47.054;15.408;2023-12-28T02:40:01;97810;;;1.3;100.0
23253;BME280;11795;47.054;15.408;2023-12-28T02:41:59;97810;;;1.5;100.0
23253;BME280;11795;47.054;15.408;2023-12-28T02:43:59;97810;;;1.4;100.0
23253;BME280;11795;47.054;15.408;2023-12-28T02:45:59;97810;;;1.2;100.0
23253;BME280;11795;47.054;15.408;2023-12-28T02:47:59;97800;;;1.3;100.0
23253;BME280;11795;47.054;15.408;2023-12-28T02:49:59;97800;;;1.1;100.0
23253;BME280;11795;47.054;15.408;2023-12-28T02:51:59;97800;;;1.3;100.0
23253;BME280;11795;47.054;15.408;2023-12-28T02:53:59;97790;;;1.2;100.0
23253;BME280;11795;47.054;15.408;2023-12-28T02:55:59;97790;;;1.1;100.0
23253;BME280;11795;47.054;15.408;2023-12-28T02:57:59;97800;;;1.2;100.0
23253;BME280;11795;47.054;15.408;2023-12-28T03:00:01;97800;;;1.2;100.0
23253;BME280;11795;47.054;15.408;2023-12-28T03:01:59;97800;;;1.4;100.0
23253;BME280;11795;47.054;15.408;2023-12-28T03:03:59;97790;;;1.2;100.0
23253;BME280;11795;47.054;15.408;2023-12-28T03:05:59;97790;;;1.1;100.0
23253;BME280;11795;47.054;15.408;2023-12-28T03:08:00;97800;;;1.2;100.0
23253;BME280;11795;47.054;15.408;2023-12-28T03:09:59;97790;;;1.2;100.0
23253;BME280;11795;47.054;15.408;2023-12-28T03:11:59;97790;;;1.4;100.0
23253;BME280;11795;47.054;15.408;2023-12-28T03:13:59;97780;;;1.2;100.0
23253;BME280;11795;47.054;15.408;2023-12-28T03:15:59;97780;;;1.1;100.0
23253;BME280;11795;47.054;15.408;2023-12-28T03:17:59;97780;;;1.3;100.0
23253;BME280;11795;47.054;15.408;2023-12-28T03:19:59;97770;;;1.1;100.0
23253;BME280;11795;47.054;15.408;2023-12-28T03:21:59;97770;;;1.3;100.0
23253;BME280;11795;47.054;15.408;2023-12-28T03:23:59;97770;;;1.2;100.0
23253;BME280;11795;47.054;15.408;2023-12-28T03:26:00;97770;;;1.1;100.0
23253;BME280;11795;47.054;15.408;2023-12-28T03:27:59;97760;;;1.1;100.0
23253;BME280;11795;47.054;15.408;2023-12-28T03:29:59;97760;;;1.0;100.0
23253;BME280;11795;47.054;15.408;2023-12-28T03:32:00;97760;;;1.2;100.0
23253;BME280;11795;47.054;15.408;2023-12-28T03:33:59;97760;;;1.0;100.0
23253;BME280;11795;47.054;15.408;2023-12-28T03:35:59;97750;;;0.9;100.0
23253;BME280;11795;47.054;15.408;2023-12-28T03:38:00;97750;;;1.1;100.0
23253;BME280;11795;47.054;15.408;2023-12-28T03:39:59;97750;;;0.9;100.0
23253;BME280;11795;47.054;15.408;2023-12-28T03:41:59;97740;;;1.0;100.0
23253;BME280;11795;47.054;15.408;2023-12-28T03:43:59;97740;;;0.9;100.0
23253;BME280;11795;47.054;15.408;2023-12-28T03:45:59;97740;;;0.9;100.0
23253;BME280;11795;47.054;15.408;2023-12-28T03:47:59;97740;;;1.0;100.0
23253;BME280;11795;47.054;15.408;2023-12-28T03:49:59;97730;;;0.9;100.0
23253;BME280;11795;47.054;15.408;2023-12-28T03:51:59;97730;;;1.0;100.0
23253;BME280;11795;47.054;15.408;2023-12-28T03:53:59;97730;;;0.8;100.0
23253;BME280;11795;47.054;15.408;2023-12-28T03:55:59;97740;;;0.7;100.0
23253;BME280;11795;47.054;15.408;2023-12-28T03:57:59;97730;;;0.8;100.0
23253;BME280;11795;47.054;15.408;2023-12-28T03:59:59;97730;;;0.8;100.0
23253;BME280;11795;47.054;15.408;2023-12-28T04:01:59;97730;;;0.9;100.0
23253;BME280;11795;47.054;15.408;2023-12-28T04:03:59;97720;;;0.7;100.0
23253;BME280;11795;47.054;15.408;2023-12-28T04:05:59;97730;;;0.7;100.0
23253;BME280;11795;47.054;15.408;2023-12-28T04:08:00;97730;;;0.7;100.0
23253;BME280;11795;47.054;15.408;2023-12-28T04:09:59;97730;;;0.5;100.0
23253;BME280;11795;47.054;15.408;2023-12-28T04:11:59;97720;;;0.7;100.0
23253;BME280;11795;47.054;15.408;2023-12-28T04:13:59;97720;;;0.6;100.0
23253;BME280;11795;47.054;15.408;2023-12-28T04:15:59;97720;;;0.5;100.0
23253;BME280;11795;47.054;15.408;2023-12-28T04:17:59;97720;;;0.7;100.0
23253;BME280;11795;47.054;15.408;2023-12-28T04:19:59;97720;;;0.6;100.0
23253;BME280;11795;47.054;15.408;2023-12-28T04:21:59;97720;;;0.8;100.0
23253;BME280;11795;47.054;15.408;2023-12-28T04:23:59;97710;;;0.5;100.0
23253;BME280;11795;47.054;15.408;2023-12-28T04:25:59;97720;;;0.5;100.0
23253;BME280;11795;47.054;15.408;2023-12-28T04:27:59;97710;;;0.7;100.0
23253;BME280;11795;47.054;15.408;2023-12-28T04:29:59;97720;;;0.5;100.0
23253;BME280;11795;47.054;15.408;2023-12-28T04:31:58;97720;;;0.6;100.0
23253;BME280;11795;47.054;15.408;2023-12-28T04:33:59;97720;;;0.5;100.0
23253;BME280;11795;47.054;15.408;2023-12-28T04:36:00;97720;;;0.4;100.0
23253;BME280;11795;47.054;15.408;2023-12-28T04:37:59;97720;;;0.6;100.0
23253;BME280;11795;47.054;15.408;2023-12-28T04:39:59;97720;;;0.6;100.0
23253;BME280;11795;47.054;15.408;2023-12-28T04:41:59;97720;;;0.7;100.0
23253;BME280;11795;47.054;15.408;2023-12-28T04:43:59;97720;;;0.6;100.0
23253;BME280;11795;47.054;15.408;2023-12-28T04:46:02;97720;;;0.5;100.0
23253;BME280;11795;47.054;15.408;2023-12-28T04:47:59;97720;;;0.5;100.0
23253;BME280;11795;47.054;15.408;2023-12-28T04:49:59;97730;;;0.2;100.0
23253;BME280;11795;47.054;15.408;2023-12-28T04:52:00;97730;;;0.5;100.0
23253;BME280;11795;47.054;15.408;2023-12-28T04:53:59;97720;;;0.4;100.0
23253;BME280;11795;47.054;15.408;2023-12-28T04:55:59;97720;;;0.3;100.0
23253;BME280;11795;47.054;15.408;2023-12-28T04:57:59;97720;;;0.3;100.0
23253;BME280;11795;47.054;15.408;2023-12-28T04:59:59;97710;;;0.2;100.0
23253;BME280;11795;47.054;15.408;2023-12-28T05:01:58;97720;;;0.3;100.0
23253;BME280;11795;47.054;15.408;2023-12-28T05:03:59;97720;;;0.2;100.0
23253;BME280;11795;47.054;15.408;2023-12-28T05:06:01;97720;;;0.1;100.0
23253;BME280;11795;47.054;15.408;2023-12-28T05:07:59;97730;;;0.2;100.0
23253;BME280;11795;47.054;15.408;2023-12-28T05:09:59;97720;;;0.2;100.0
23253;BME280;11795;47.054;15.408;2023-12-28T05:11:59;97730;;;0.3;100.0
23253;BME280;11795;47.054;15.408;2023-12-28T05:13:59;97730;;;0.2;100.0
23253;BME280;11795;47.054;15.408;2023-12-28T05:15:59;97730;;;0.2;100.0
23253;BME280;11795;47.054;15.408;2023-12-28T05:17:59;97740;;;0.3;100.0
23253;BME280;11795;47.054;15.408;2023-12-28T05:19:59;97740;;;0.2;100.0
23253;BME280;11795;47.054;15.408;2023-12-28T05:22:03;97740;;;0.4;100.0
23253;BME280;11795;47.054;15.408;2023-12-28T05:23:59;97740;;;0.2;100.0
23253;BME280;11795;47.054;15.408;2023-12-28T05:25:59;97740;;;0.3;100.0
23253;BME280;11795;47.054;15.408;2023-12-28T05:27:59;97740;;;0.3;100.0
23253;BME280;11795;47.054;15.408;2023-12-28T05:29:59;97740;;;0.2;100.0
23253;BME280;11795;47.054;15.408;2023-12-28T05:33:59;97730;;;0.2;100.0
23253;BME280;11795;47.054;15.408;2023-12-28T05:35:59;97730;;;0.1;100.0
23253;BME280;11795;47.054;15.408;2023-12-28T05:37:59;97730;;;0.3;100.0
23253;BME280;11795;47.054;15.408;2023-12-28T05:39:59;97720;;;0.2;100.0
23253;BME280;11795;47.054;15.408;2023-12-28T05:41:59;97730;;;0.2;100.0
23253;BME280;11795;47.054;15.408;2023-12-28T05:43:59;97730;;;-0.0;100.0
23253;BME280;11795;47.054;15.408;2023-12-28T05:45:59;97740;;;-0.1;100.0
23253;BME280;11795;47.054;15.408;2023-12-28T05:47:59;97730;;;0.0;100.0
23253;BME280;11795;47.054;15.408;2023-12-28T05:49:59;97730;;;-0.1;100.0
23253;BME280;11795;47.054;15.408;2023-12-28T05:51:59;97730;;;0.1;100.0
23253;BME280;11795;47.054;15.408;2023-12-28T05:53:59;97740;;;-0.1;100.0
23253;BME280;11795;47.054;15.408;2023-12-28T05:56:04;97730;;;-0.0;100.0
23253;BME280;11795;47.054;15.408;2023-12-28T05:57:59;97730;;;-0.0;100.0
23253;BME280;11795;47.054;15.408;2023-12-28T05:59:59;97740;;;-0.2;100.0
23253;BME280;11795;47.054;15.408;2023-12-28T06:01:59;97740;;;-0.1;100.0
23253;BME280;11795;47.054;15.408;2023-12-28T06:03:59;97740;;;-0.2;100.0
23253;BME280;11795;47.054;15.408;2023-12-28T06:05:59;97730;;;-0.3;100.0
23253;BME280;11795;47.054;15.408;2023-12-28T06:07:59;97730;;;-0.1;100.0
23253;BME280;11795;47.054;15.408;2023-12-28T06:09:59;97730;;;-0.2;100.0
23253;BME280;11795;47.054;15.408;2023-12-28T06:11:59;97740;;;-0.1;100.0
23253;BME280;11795;47.054;15.408;2023-12-28T06:13:59;97730;;;-0.3;100.0
23253;BME280;11795;47.054;15.408;2023-12-28T06:15:59;97730;;;-0.3;100.0
23253;BME280;11795;47.054;15.408;2023-12-28T06:17:59;97730;;;-0.2;100.0
23253;BME280;11795;47.054;15.408;2023-12-28T06:19:59;97730;;;-0.3;100.0
23253;BME280;11795;47.054;15.408;2023-12-28T06:21:59;97740;;;-0.2;100.0
23253;BME280;11795;47.054;15.408;2023-12-28T06:23:59;97740;;;-0.3;100.0
23253;BME280;11795;47.054;15.408;2023-12-28T06:26:04;97740;;;-0.3;100.0
23253;BME280;11795;47.054;15.408;2023-12-28T06:27:59;97740;;;-0.2;100.0
23253;BME280;11795;47.054;15.408;2023-12-28T06:29:59;97740;;;-0.2;100.0
23253;BME280;11795;47.054;15.408;2023-12-28T06:31:59;97740;;;-0.1;100.0
23253;BME280;11795;47.054;15.408;2023-12-28T06:33:59;97740;;;-0.1;100.0
23253;BME280;11795;47.054;15.408;2023-12-28T06:36:04;97750;;;-0.2;100.0
23253;BME280;11795;47.054;15.408;2023-12-28T06:37:59;97750;;;-0.1;100.0
23253;BME280;11795;47.054;15.408;2023-12-28T06:39:59;97760;;;-0.4;100.0
23253;BME280;11795;47.054;15.408;2023-12-28T06:41:59;97760;;;-0.2;100.0
23253;BME280;11795;47.054;15.408;2023-12-28T06:43:59;97760;;;-0.4;100.0
23253;BME280;11795;47.054;15.408;2023-12-28T06:45:59;97750;;;-0.4;100.0
23253;BME280;11795;47.054;15.408;2023-12-28T06:47:59;97760;;;-0.3;100.0
23253;BME280;11795;47.054;15.408;2023-12-28T06:49:59;97760;;;-0.4;100.0
23253;BME280;11795;47.054;15.408;2023-12-28T06:51:59;97750;;;-0.2;100.0
23253;BME280;11795;47.054;15.408;2023-12-28T06:53:59;97760;;;-0.3;100.0
23253;BME280;11795;47.054;15.408;2023-12-28T06:55:59;97760;;;-0.4;100.0
23253;BME280;11795;47.054;15.408;2023-12-28T06:57:59;97760;;;-0.2;100.0
23253;BME280;11795;47.054;15.408;2023-12-28T07:00:02;97760;;;-0.3;100.0
23253;BME280;11795;47.054;15.408;2023-12-28T07:01:59;97760;;;-0.2;100.0
23253;BME280;11795;47.054;15.408;2023-12-28T07:03:59;97760;;;-0.2;100.0
23253;BME280;11795;47.054;15.408;2023-12-28T07:05:59;97760;;;-0.3;100.0
23253;BME280;11795;47.054;15.408;2023-12-28T07:07:59;97760;;;-0.2;100.0
23253;BME280;11795;47.054;15.408;2023-12-28T07:09:59;97760;;;-0.3;100.0
23253;BME280;11795;47.054;15.408;2023-12-28T07:11:59;97760;;;-0.2;100.0
23253;BME280;11795;47.054;15.408;2023-12-28T07:13:59;97760;;;-0.4;100.0
23253;BME280;11795;47.054;15.408;2023-12-28T07:15:59;97770;;;-0.3;100.0
23253;BME280;11795;47.054;15.408;2023-12-28T07:17:59;97770;;;-0.3;100.0
23253;BME280;11795;47.054;15.408;2023-12-28T07:20:00;97770;;;-0.3;100.0
23253;BME280;11795;47.054;15.408;2023-12-28T07:21:59;97770;;;-0.2;100.0
23253;BME280;11795;47.054;15.408;2023-12-28T07:23:59;97770;;;-0.3;100.0
23253;BME280;11795;47.054;15.408;2023-12-28T07:25:59;97770;;;-0.3;100.0
23253;BME280;11795;47.054;15.408;2023-12-28T07:27:59;97770;;;-0.1;100.0
23253;BME280;11795;47.054;15.408;2023-12-28T07:29:59;97770;;;-0.2;100.0
23253;BME280;11795;47.054;15.408;2023-12-28T07:31:59;97780;;;-0.0;100.0
23253;BME280;11795;47.054;15.408;2023-12-28T07:33:59;97770;;;0.0;100.0
23253;BME280;11795;47.054;15.408;2023-12-28T07:36:02;97770;;;0.0;100.0
23253;BME280;11795;47.054;15.408;2023-12-28T07:37:59;97770;;;0.1;100.0
23253;BME280;11795;47.054;15.408;2023-12-28T07:39:59;97770;;;0.0;100.0
23253;BME280;11795;47.054;15.408;2023-12-28T07:41:59;97770;;;0.1;100.0
23253;BME280;11795;47.054;15.408;2023-12-28T07:43:59;97770;;;0.1;100.0
23253;BME280;11795;47.054;15.408;2023-12-28T07:45:59;97770;;;0.1;100.0
23253;BME280;11795;47.054;15.408;2023-12-28T07:47:59;97770;;;0.3;100.0
23253;BME280;11795;47.054;15.408;2023-12-28T07:49:59;97770;;;0.3;100.0
23253;BME280;11795;47.054;15.408;2023-12-28T07:51:59;97770;;;0.4;100.0
23253;BME280;11795;47.054;15.408;2023-12-28T07:53:59;97770;;;0.3;99.3
23253;BME280;11795;47.054;15.408;2023-12-28T07:55:59;97770;;;0.3;99.7
23253;BME280;11795;47.054;15.408;2023-12-28T07:57:59;97770;;;0.4;99.4
23253;BME280;11795;47.054;15.408;2023-12-28T07:59:59;97770;;;0.4;99.7
23253;BME280;11795;47.054;15.408;2023-12-28T08:01:59;97770;;;0.5;99.7
23253;BME280;11795;47.054;15.408;2023-12-28T08:04:00;97770;;;0.4;99.3
23253;BME280;11795;47.054;15.408;2023-12-28T08:05:59;97780;;;0.4;99.6
23253;BME280;11795;47.054;15.408;2023-12-28T08:07:59;97790;;;0.6;98.8
23253;BME280;11795;47.054;15.408;2023-12-28T08:09:59;97790;;;0.5;98.9
23253;BME280;11795;47.054;15.408;2023-12-28T08:11:59;97790;;;0.6;99.2
23253;BME280;11795;47.054;15.408;2023-12-28T08:13:59;97790;;;0.6;98.5
23253;BME280;11795;47.054;15.408;2023-12-28T08:15:59;97790;;;0.6;99.0
23253;BME280;11795;47.054;15.408;2023-12-28T08:17:59;97790;;;0.8;98.5
23253;BME280;11795;47.054;15.408;2023-12-28T08:19:59;97790;;;0.7;98.6
23253;BME280;11795;47.054;15.408;2023-12-28T08:21:59;97790;;;0.8;98.8
23253;BME280;11795;47.054;15.408;2023-12-28T08:23:59;97800;;;0.8;98.3
23253;BME280;11795;47.054;15.408;2023-12-28T08:25:59;97790;;;0.8;98.6
23253;BME280;11795;47.054;15.408;2023-12-28T08:27:59;97780;;;0.9;98.0
23253;BME280;11795;47.054;15.408;2023-12-28T08:29:59;97780;;;0.9;98.2
23253;BME280;11795;47.054;15.408;2023-12-28T08:31:59;97780;;;1.0;98.2
23253;BME280;11795;47.054;15.408;2023-12-28T08:33:59;97790;;;0.9;97.8
23253;BME280;11795;47.054;15.408;2023-12-28T08:36:00;97790;;;0.9;98.4
23253;BME280;11795;47.054;15.408;2023-12-28T08:37:59;97790;;;1.1;97.9
23253;BME280;11795;47.054;15.408;2023-12-28T08:39:59;97790;;;1.1;98.1
23253;BME280;11795;47.054;15.408;2023-12-28T08:41:59;97790;;;1.3;98.3
23253;BME280;11795;47.054;15.408;2023-12-28T08:43:59;97790;;;1.2;98.0
23253;BME280;11795;47.054;15.408;2023-12-28T08:45:59;97790;;;1.2;98.3
23253;BME280;11795;47.054;15.408;2023-12-28T08:47:59;97790;;;1.4;97.8
23253;BME280;11795;47.054;15.408;2023-12-28T08:49:59;97800;;;1.4;97.9
23253;BME280;11795;47.054;15.408;2023-12-28T08:51:59;97800;;;1.6;97.8
23253;BME280;11795;47.054;15.408;2023-12-28T08:53:59;97800;;;1.5;97.5
23253;BME280;11795;47.054;15.408;2023-12-28T08:55:59;97810;;;1.5;98.0
23253;BME280;11795;47.054;15.408;2023-12-28T08:57:59;97800;;;1.7;97.4
23253;BME280;11795;47.054;15.408;2023-12-28T09:00:00;97800;;;1.6;97.5
23253;BME280;11795;47.054;15.408;2023-12-28T09:02:01;97810;;;1.8;97.7
23253;BME280;11795;47.054;15.408;2023-12-28T09:03:59;97810;;;1.8;97.2
23253;BME280;11795;47.054;15.408;2023-12-28T09:05:59;97810;;;1.8;97.7
23253;BME280;11795;47.054;15.408;2023-12-28T09:07:59;97820;;;2.0;97.1
23253;BME280;11795;47.054;15.408;2023-12-28T09:09:59;97820;;;2.0;97.2
23253;BME280;11795;47.054;15.408;2023-12-28T09:11:59;97820;;;2.1;97.5
23253;BME280;11795;47.054;15.408;2023-12-28T09:13:59;97820;;;2.2;97.0
23253;BME280;11795;47.054;15.408;2023-12-28T09:15:59;97810;;;2.2;97.4
23253;BME280;11795;47.054;15.408;2023-12-28T09:17:59;97820;;;2.5;97.0
23253;BME280;11795;47.054;15.408;2023-12-28T09:19:59;97820;;;2.5;97.0
23253;BME280;11795;47.054;15.408;2023-12-28T09:21:59;97820;;;2.8;96.9
23253;BME280;11795;47.054;15.408;2023-12-28T09:23:59;97830;;;2.9;96.6
23253;BME280;11795;47.054;15.408;2023-12-28T09:26:00;97820;;;3.0;96.7
23253;BME280;11795;47.054;15.408;2023-12-28T09:27:59;97820;;;3.3;95.1
23253;BME280;11795;47.054;15.408;2023-12-28T09:29:59;97820;;;3.6;95.2
23253;BME280;11795;47.054;15.408;2023-12-28T09:31:59;97810;;;4.0;94.2
23253;BME280;11795;47.054;15.408;2023-12-28T09:33:59;97800;;;4.3;92.8
23253;BME280;11795;47.054;15.408;2023-12-28T09:36:00;97810;;;4.6;92.0
23253;BME280;11795;47.054;15.408;2023-12-28T09:37:59;97790;;;4.9;90.1
23253;BME280;11795;47.054;15.408;2023-12-28T09:39:59;97790;;;5.0;88.0
23253;BME280;11795;47.054;15.408;2023-12-28T09:42:00;97780;;;5.3;86.6
23253;BME280;11795;47.054;15.408;2023-12-28T09:44:05;97780;;;5.3;84.0
23253;BME280;11795;47.054;15.408;2023-12-28T09:45:59;97780;;;5.4;83.4
23253;BME280;11795;47.054;15.408;2023-12-28T09:47:59;97780;;;5.3;80.5
23253;BME280;11795;47.054;15.408;2023-12-28T09:49:59;97780;;;5.5;81.8
23253;BME280;11795;47.054;15.408;2023-12-28T09:51:59;97780;;;5.8;79.3
23253;BME280;11795;47.054;15.408;2023-12-28T09:53:59;97780;;;6.1;79.9
23253;BME280;11795;47.054;15.408;2023-12-28T09:55:59;97770;;;6.3;78.0
23253;BME280;11795;47.054;15.408;2023-12-28T09:58:00;97770;;;6.4;73.6
23253;BME280;11795;47.054;15.408;2023-12-28T09:59:59;97780;;;6.6;72.9
23253;BME280;11795;47.054;15.408;2023-12-28T10:02:00;97780;;;6.9;73.2
23253;BME280;11795;47.054;15.408;2023-12-28T10:03:59;97780;;;7.2;71.8
23253;BME280;11795;47.054;15.408;2023-12-28T10:05:59;97780;;;7.5;72.1
23253;BME280;11795;47.054;15.408;2023-12-28T10:07:59;97780;;;7.8;69.3
23253;BME280;11795;47.054;15.408;2023-12-28T10:09:59;97770;;;8.0;69.5
23253;BME280;11795;47.054;15.408;2023-12-28T10:11:59;97770;;;8.3;67.4
23253;BME280;11795;47.054;15.408;2023-12-28T10:13:59;97770;;;8.3;65.4
23253;BME280;11795;47.054;15.408;2023-12-28T10:15:59;97770;;;8.6;66.6
23253;BME280;11795;47.054;15.408;2023-12-28T10:17:59;97760;;;8.9;64.7
23253;BME280;11795;47.054;15.408;2023-12-28T10:20:07;97770;;;9.1;64.6
23253;BME280;11795;47.054;15.408;2023-12-28T10:22:00;97760;;;9.6;64.3
23253;BME280;11795;47.054;15.408;2023-12-28T10:23:59;97760;;;9.8;61.0
23253;BME280;11795;47.054;15.408;2023-12-28T10:26:00;97760;;;9.8;60.7
23253;BME280;11795;47.054;15.408;2023-12-28T10:28:05;97750;;;10.3;59.5
23253;BME280;11795;47.054;15.408;2023-12-28T10:29:59;97740;;;10.3;59.7
23253;BME280;11795;47.054;15.408;2023-12-28T10:32:00;97740;;;10.6;59.3
23253;BME280;11795;47.054;15.408;2023-12-28T10:33:59;97740;;;10.7;57.0
23253;BME280;11795;47.054;15.408;2023-12-28T10:35:59;97730;;;10.7;56.3
23253;BME280;11795;47.054;15.408;2023-12-28T10:38:00;97730;;;11.3;55.7
23253;BME280;11795;47.054;15.408;2023-12-28T10:39:59;97730;;;11.2;56.0
23253;BME280;11795;47.054;15.408;2023-12-28T10:41:59;97730;;;11.6;55.9
23253;BME280;11795;47.054;15.408;2023-12-28T10:44:02;97730;;;11.8;54.6
23253;BME280;11795;47.054;15.408;2023-12-28T10:45:59;97730;;;11.9;54.6
23253;BME280;11795;47.054;15.408;2023-12-28T10:48:05;97730;;;12.2;51.7
23253;BME280;11795;47.054;15.408;2023-12-28T10:50:02;97730;;;11.9;52.7
23253;BME280;11795;47.054;15.408;2023-12-28T10:51:59;97730;;;12.3;53.1
23253;BME280;11795;47.054;15.408;2023-12-28T10:54:06;97730;;;12.5;51.9
23253;BME280;11795;47.054;15.408;2023-12-28T10:56:06;97730;;;12.2;51.3
23253;BME280;11795;47.054;15.408;2023-12-28T10:58:05;97720;;;12.5;49.8
23253;BME280;11795;47.054;15.408;2023-12-28T11:00:03;97720;;;12.5;51.2
23253;BME280;11795;47.054;15.408;2023-12-28T11:02:01;97720;;;12.8;51.5
23253;BME280;11795;47.054;15.408;2023-12-28T11:04:03;97720;;;13.0;50.8
23253;BME280;11795;47.054;15.408;2023-12-28T11:05:59;97720;;;13.0;50.7
23253;BME280;11795;47.054;15.408;2023-12-28T11:08:01;97720;;;13.8;48.8
23253;BME280;11795;47.054;15.408;2023-12-28T11:10:00;97720;;;13.8;49.4
23253;BME280;11795;47.054;15.408;2023-12-28T11:12:00;97710;;;13.6;47.8
23253;BME280;11795;47.054;15.408;2023-12-28T11:13:59;97720;;;13.7;47.3
23253;BME280;11795;47.054;15.408;2023-12-28T11:15:59;97710;;;13.8;48.7